sensor_id;sensor_type;location;lat;lon;timestamp;P1;durP1;ratioP1;P2;durP2;ratioP2
3991;SDS011;2010;48.194;16.394;2023-04-24T00:01:54;4.50;;;4.10;;
3991;SDS011;2010;48.194;16.394;2023-04-24T00:04:26;4.73;;;4.37;;
3991;SDS011;2010;48.194;16.394;2023-04-24T00:07:03;6.87;;;5.17;;
3991;SDS011;2010;48.194;16.394;2023-04-24T00:09:36;4.93;;;4.43;;
3991;SDS011;2010;48.194;16.394;2023-04-24T00:12:12;4.83;;;4.43;;
3991;SDS011;2010;48.194;16.394;2023-04-24T00:14:49;4.43;;;4.03;;
3991;SDS011;2010;48.194;16.394;2023-04-24T00:17:18;4.77;;;4.47;;
3991;SDS011;2010;48.194;16.394;2023-04-24T00:20:05;5.40;;;4.93;;
3991;SDS011;2010;48.194;16.394;2023-04-24T00:22:40;5.10;;;4.70;;
3991;SDS011;2010;48.194;16.394;2023-04-24T00:25:08;4.40;;;4.10;;
3991;SDS011;2010;48.194;16.394;2023-04-24T00:27:41;6.20;;;4.50;;
3991;SDS011;2010;48.194;16.394;2023-04-24T00:30:10;5.30;;;4.80;;
3991;SDS011;2010;48.194;16.394;2023-04-24T00:32:40;4.57;;;4.27;;
3991;SDS011;2010;48.194;16.394;2023-04-24T00:35:15;6.37;;;4.50;;
3991;SDS011;2010;48.194;16.394;2023-04-24T00:37:45;5.50;;;4.90;;
3991;SDS011;2010;48.194;16.394;2023-04-24T00:40:24;7.03;;;5.57;;
3991;SDS011;2010;48.194;16.394;2023-04-24T00:42:59;6.10;;;5.03;;
3991;SDS011;2010;48.194;16.394;2023-04-24T00:45:36;5.37;;;4.90;;
3991;SDS011;2010;48.194;16.394;2023-04-24T00:48:08;5.77;;;4.93;;
3991;SDS011;2010;48.194;16.394;2023-04-24T00:50:43;4.30;;;4.00;;
3991;SDS011;2010;48.194;16.394;2023-04-24T00:53:14;5.43;;;5.03;;
3991;SDS011;2010;48.194;16.394;2023-04-24T00:55:46;4.57;;;3.83;;
3991;SDS011;2010;48.194;16.394;2023-04-24T00:58:18;4.83;;;4.43;;
3991;SDS011;2010;48.194;16.394;2023-04-24T01:00:49;5.00;;;4.60;;
3991;SDS011;2010;48.194;16.394;2023-04-24T01:03:22;4.77;;;4.40;;
3991;SDS011;2010;48.194;16.394;2023-04-24T01:05:59;5.20;;;4.70;;
3991;SDS011;2010;48.194;16.394;2023-04-24T01:08:38;7.20;;;4.93;;
3991;SDS011;2010;48.194;16.394;2023-04-24T01:11:23;5.37;;;4.87;;
3991;SDS011;2010;48.194;16.394;2023-04-24T01:13:53;5.43;;;5.03;;
3991;SDS011;2010;48.194;16.394;2023-04-24T01:16:35;5.90;;;5.30;;
3991;SDS011;2010;48.194;16.394;2023-04-24T01:19:05;6.53;;;5.43;;
3991;SDS011;2010;48.194;16.394;2023-04-24T01:21:37;5.37;;;4.97;;
3991;SDS011;2010;48.194;16.394;2023-04-24T01:24:24;7.43;;;5.00;;
3991;SDS011;2010;48.194;16.394;2023-04-24T01:26:53;9.40;;;5.00;;
3991;SDS011;2010;48.194;16.394;2023-04-24T01:29:25;13.10;;;6.77;;
3991;SDS011;2010;48.194;16.394;2023-04-24T01:31:56;5.40;;;5.00;;
3991;SDS011;2010;48.194;16.394;2023-04-24T01:34:30;5.80;;;5.30;;
3991;SDS011;2010;48.194;16.394;2023-04-24T01:36:59;5.90;;;5.40;;
3991;SDS011;2010;48.194;16.394;2023-04-24T01:39:31;5.23;;;4.73;;
3991;SDS011;2010;48.194;16.394;2023-04-24T01:42:04;7.23;;;5.50;;
3991;SDS011;2010;48.194;16.394;2023-04-24T01:44:41;6.40;;;5.80;;
3991;SDS011;2010;48.194;16.394;2023-04-24T01:47:13;9.00;;;6.40;;
3991;SDS011;2010;48.194;16.394;2023-04-24T01:49:51;6.43;;;5.83;;
3991;SDS011;2010;48.194;16.394;2023-04-24T01:52:21;6.40;;;5.90;;
3991;SDS011;2010;48.194;16.394;2023-04-24T01:54:57;5.77;;;5.27;;
3991;SDS011;2010;48.194;16.394;2023-04-24T01:57:36;6.83;;;6.17;;
3991;SDS011;2010;48.194;16.394;2023-04-24T02:00:15;7.53;;;6.70;;
3991;SDS011;2010;48.194;16.394;2023-04-24T02:02:52;8.10;;;5.90;;
3991;SDS011;2010;48.194;16.394;2023-04-24T02:05:26;6.47;;;5.87;;
3991;SDS011;2010;48.194;16.394;2023-04-24T02:07:58;6.60;;;5.90;;
3991;SDS011;2010;48.194;16.394;2023-04-24T02:10:33;6.53;;;5.77;;
3991;SDS011;2010;48.194;16.394;2023-04-24T02:13:02;6.63;;;5.70;;
3991;SDS011;2010;48.194;16.394;2023-04-24T02:15:31;5.83;;;4.80;;
3991;SDS011;2010;48.194;16.394;2023-04-24T02:17:59;6.70;;;5.47;;
3991;SDS011;2010;48.194;16.394;2023-04-24T02:20:31;5.23;;;4.73;;
3991;SDS011;2010;48.194;16.394;2023-04-24T02:23:03;5.60;;;4.47;;
3991;SDS011;2010;48.194;16.394;2023-04-24T02:25:42;4.93;;;4.27;;
3991;SDS011;2010;48.194;16.394;2023-04-24T02:28:18;5.30;;;4.20;;
3991;SDS011;2010;48.194;16.394;2023-04-24T02:30:57;5.47;;;3.80;;
3991;SDS011;2010;48.194;16.394;2023-04-24T02:33:32;4.53;;;4.13;;
3991;SDS011;2010;48.194;16.394;2023-04-24T02:36:08;6.77;;;4.23;;
3991;SDS011;2010;48.194;16.394;2023-04-24T02:38:40;4.17;;;3.90;;
3991;SDS011;2010;48.194;16.394;2023-04-24T02:41:19;4.20;;;3.80;;
3991;SDS011;2010;48.194;16.394;2023-04-24T02:43:50;3.60;;;3.30;;
3991;SDS011;2010;48.194;16.394;2023-04-24T02:46:21;4.30;;;3.90;;
3991;SDS011;2010;48.194;16.394;2023-04-24T02:48:50;4.70;;;3.87;;
3991;SDS011;2010;48.194;16.394;2023-04-24T02:51:27;4.10;;;3.80;;
3991;SDS011;2010;48.194;16.394;2023-04-24T02:54:00;4.30;;;3.90;;
3991;SDS011;2010;48.194;16.394;2023-04-24T02:56:37;6.57;;;3.63;;
3991;SDS011;2010;48.194;16.394;2023-04-24T02:59:10;4.10;;;3.70;;
3991;SDS011;2010;48.194;16.394;2023-04-24T03:01:43;3.70;;;3.40;;
3991;SDS011;2010;48.194;16.394;2023-04-24T03:04:15;3.70;;;3.40;;
3991;SDS011;2010;48.194;16.394;2023-04-24T03:06:48;4.00;;;3.70;;
3991;SDS011;2010;48.194;16.394;2023-04-24T03:09:20;5.30;;;3.43;;
3991;SDS011;2010;48.194;16.394;2023-04-24T03:12:00;4.03;;;3.50;;
3991;SDS011;2010;48.194;16.394;2023-04-24T03:14:37;3.47;;;3.27;;
3991;SDS011;2010;48.194;16.394;2023-04-24T03:17:05;4.00;;;3.60;;
3991;SDS011;2010;48.194;16.394;2023-04-24T03:19:36;3.83;;;3.53;;
3991;SDS011;2010;48.194;16.394;2023-04-24T03:22:11;3.40;;;3.20;;
3991;SDS011;2010;48.194;16.394;2023-04-24T03:24:49;3.43;;;3.23;;
3991;SDS011;2010;48.194;16.394;2023-04-24T03:27:40;4.33;;;3.93;;
3991;SDS011;2010;48.194;16.394;2023-04-24T03:30:39;3.20;;;2.90;;
3991;SDS011;2010;48.194;16.394;2023-04-24T03:33:11;4.23;;;3.53;;
3991;SDS011;2010;48.194;16.394;2023-04-24T03:35:57;4.70;;;3.30;;
3991;SDS011;2010;48.194;16.394;2023-04-24T03:38:37;3.40;;;3.20;;
3991;SDS011;2010;48.194;16.394;2023-04-24T03:41:25;3.93;;;3.60;;
3991;SDS011;2010;48.194;16.394;2023-04-24T03:44:14;4.60;;;4.20;;
3991;SDS011;2010;48.194;16.394;2023-04-24T03:46:51;9.43;;;3.80;;
3991;SDS011;2010;48.194;16.394;2023-04-24T03:49:23;3.80;;;3.43;;
3991;SDS011;2010;48.194;16.394;2023-04-24T03:51:52;3.57;;;3.37;;
3991;SDS011;2010;48.194;16.394;2023-04-24T03:54:26;5.73;;;3.80;;
3991;SDS011;2010;48.194;16.394;2023-04-24T03:56:59;5.20;;;3.63;;
3991;SDS011;2010;48.194;16.394;2023-04-24T03:59:36;4.17;;;3.80;;
3991;SDS011;2010;48.194;16.394;2023-04-24T04:02:16;3.97;;;3.67;;
3991;SDS011;2010;48.194;16.394;2023-04-24T04:04:52;4.43;;;3.90;;
3991;SDS011;2010;48.194;16.394;2023-04-24T04:07:21;4.40;;;4.00;;
3991;SDS011;2010;48.194;16.394;2023-04-24T04:09:56;3.70;;;3.40;;
3991;SDS011;2010;48.194;16.394;2023-04-24T04:12:30;3.40;;;3.20;;
3991;SDS011;2010;48.194;16.394;2023-04-24T04:15:06;3.83;;;3.53;;
3991;SDS011;2010;48.194;16.394;2023-04-24T04:17:40;4.00;;;3.80;;
3991;SDS011;2010;48.194;16.394;2023-04-24T04:20:12;3.30;;;3.10;;
3991;SDS011;2010;48.194;16.394;2023-04-24T04:22:45;5.40;;;3.53;;
3991;SDS011;2010;48.194;16.394;2023-04-24T04:25:21;4.53;;;3.67;;
3991;SDS011;2010;48.194;16.394;2023-04-24T04:27:53;3.40;;;3.10;;
3991;SDS011;2010;48.194;16.394;2023-04-24T04:30:26;4.90;;;3.63;;
3991;SDS011;2010;48.194;16.394;2023-04-24T04:33:03;3.30;;;3.03;;
3991;SDS011;2010;48.194;16.394;2023-04-24T04:35:34;4.40;;;3.23;;
3991;SDS011;2010;48.194;16.394;2023-04-24T04:38:04;3.30;;;3.10;;
3991;SDS011;2010;48.194;16.394;2023-04-24T04:40:57;4.37;;;3.00;;
3991;SDS011;2010;48.194;16.394;2023-04-24T04:43:30;3.40;;;3.10;;
3991;SDS011;2010;48.194;16.394;2023-04-24T04:46:05;3.40;;;3.13;;
3991;SDS011;2010;48.194;16.394;2023-04-24T04:48:50;3.57;;;3.17;;
3991;SDS011;2010;48.194;16.394;2023-04-24T04:51:21;4.67;;;3.10;;
3991;SDS011;2010;48.194;16.394;2023-04-24T04:54:09;3.53;;;2.93;;
3991;SDS011;2010;48.194;16.394;2023-04-24T04:56:37;3.90;;;3.03;;
3991;SDS011;2010;48.194;16.394;2023-04-24T04:59:14;4.83;;;2.87;;
3991;SDS011;2010;48.194;16.394;2023-04-24T05:01:45;5.93;;;3.30;;
3991;SDS011;2010;48.194;16.394;2023-04-24T05:04:23;3.50;;;3.20;;
3991;SDS011;2010;48.194;16.394;2023-04-24T05:06:54;8.73;;;2.63;;
3991;SDS011;2010;48.194;16.394;2023-04-24T05:09:30;3.67;;;3.07;;
3991;SDS011;2010;48.194;16.394;2023-04-24T05:12:21;3.50;;;3.20;;
3991;SDS011;2010;48.194;16.394;2023-04-24T05:14:54;4.60;;;2.40;;
3991;SDS011;2010;48.194;16.394;2023-04-24T05:17:30;4.50;;;3.37;;
3991;SDS011;2010;48.194;16.394;2023-04-24T05:19:59;3.13;;;2.83;;
3991;SDS011;2010;48.194;16.394;2023-04-24T05:22:32;2.50;;;2.33;;
3991;SDS011;2010;48.194;16.394;2023-04-24T05:25:03;3.17;;;2.97;;
3991;SDS011;2010;48.194;16.394;2023-04-24T05:27:50;2.80;;;2.60;;
3991;SDS011;2010;48.194;16.394;2023-04-24T05:30:30;3.17;;;2.87;;
3991;SDS011;2010;48.194;16.394;2023-04-24T05:33:10;4.20;;;2.50;;
3991;SDS011;2010;48.194;16.394;2023-04-24T05:35:38;3.23;;;2.77;;
3991;SDS011;2010;48.194;16.394;2023-04-24T05:38:14;5.40;;;3.10;;
3991;SDS011;2010;48.194;16.394;2023-04-24T05:40:49;3.70;;;3.40;;
3991;SDS011;2010;48.194;16.394;2023-04-24T05:43:18;4.70;;;3.03;;
3991;SDS011;2010;48.194;16.394;2023-04-24T05:45:52;3.70;;;3.40;;
3991;SDS011;2010;48.194;16.394;2023-04-24T05:48:25;3.30;;;3.00;;
3991;SDS011;2010;48.194;16.394;2023-04-24T05:50:54;3.17;;;2.87;;
3991;SDS011;2010;48.194;16.394;2023-04-24T05:53:24;5.37;;;2.97;;
3991;SDS011;2010;48.194;16.394;2023-04-24T05:55:55;3.20;;;2.83;;
3991;SDS011;2010;48.194;16.394;2023-04-24T05:58:25;6.60;;;2.80;;
3991;SDS011;2010;48.194;16.394;2023-04-24T06:00:55;3.13;;;2.97;;
3991;SDS011;2010;48.194;16.394;2023-04-24T06:03:29;3.13;;;2.83;;
3991;SDS011;2010;48.194;16.394;2023-04-24T06:06:06;2.93;;;2.70;;
3991;SDS011;2010;48.194;16.394;2023-04-24T06:08:44;4.27;;;2.40;;
3991;SDS011;2010;48.194;16.394;2023-04-24T06:11:25;4.50;;;2.60;;
3991;SDS011;2010;48.194;16.394;2023-04-24T06:13:54;2.67;;;2.47;;
3991;SDS011;2010;48.194;16.394;2023-04-24T06:16:37;2.40;;;2.20;;
3991;SDS011;2010;48.194;16.394;2023-04-24T06:19:33;2.37;;;2.27;;
3991;SDS011;2010;48.194;16.394;2023-04-24T06:22:03;2.50;;;2.30;;
3991;SDS011;2010;48.194;16.394;2023-04-24T06:24:36;7.37;;;3.90;;
3991;SDS011;2010;48.194;16.394;2023-04-24T06:27:04;8.57;;;7.73;;
3991;SDS011;2010;48.194;16.394;2023-04-24T06:29:36;4.83;;;4.43;;
3991;SDS011;2010;48.194;16.394;2023-04-24T06:32:05;6.83;;;4.40;;
3991;SDS011;2010;48.194;16.394;2023-04-24T06:34:49;7.20;;;5.70;;
3991;SDS011;2010;48.194;16.394;2023-04-24T06:37:21;10.87;;;4.77;;
3991;SDS011;2010;48.194;16.394;2023-04-24T06:39:53;8.40;;;4.37;;
3991;SDS011;2010;48.194;16.394;2023-04-24T06:42:23;4.43;;;3.37;;
3991;SDS011;2010;48.194;16.394;2023-04-24T06:44:53;6.00;;;4.23;;
3991;SDS011;2010;48.194;16.394;2023-04-24T06:47:29;5.90;;;3.00;;
3991;SDS011;2010;48.194;16.394;2023-04-24T06:50:00;4.00;;;3.10;;
3991;SDS011;2010;48.194;16.394;2023-04-24T06:52:36;5.17;;;4.10;;
3991;SDS011;2010;48.194;16.394;2023-04-24T06:55:08;5.20;;;2.97;;
3991;SDS011;2010;48.194;16.394;2023-04-24T06:57:38;6.27;;;4.03;;
3991;SDS011;2010;48.194;16.394;2023-04-24T07:00:09;3.67;;;3.37;;
3991;SDS011;2010;48.194;16.394;2023-04-24T07:02:38;5.33;;;3.37;;
3991;SDS011;2010;48.194;16.394;2023-04-24T07:05:12;3.00;;;2.80;;
3991;SDS011;2010;48.194;16.394;2023-04-24T07:07:46;3.23;;;2.97;;
3991;SDS011;2010;48.194;16.394;2023-04-24T07:10:18;5.83;;;2.80;;
3991;SDS011;2010;48.194;16.394;2023-04-24T07:12:48;3.53;;;3.23;;
3991;SDS011;2010;48.194;16.394;2023-04-24T07:15:20;2.87;;;2.40;;
3991;SDS011;2010;48.194;16.394;2023-04-24T07:17:58;3.37;;;3.07;;
3991;SDS011;2010;48.194;16.394;2023-04-24T07:20:44;2.80;;;2.37;;
3991;SDS011;2010;48.194;16.394;2023-04-24T07:23:20;2.80;;;2.40;;
3991;SDS011;2010;48.194;16.394;2023-04-24T07:25:52;3.63;;;2.10;;
3991;SDS011;2010;48.194;16.394;2023-04-24T07:28:28;3.13;;;2.83;;
3991;SDS011;2010;48.194;16.394;2023-04-24T07:31:01;4.17;;;2.60;;
3991;SDS011;2010;48.194;16.394;2023-04-24T07:33:32;2.40;;;2.20;;
3991;SDS011;2010;48.194;16.394;2023-04-24T07:36:17;5.03;;;2.23;;
3991;SDS011;2010;48.194;16.394;2023-04-24T07:38:50;2.90;;;2.67;;
3991;SDS011;2010;48.194;16.394;2023-04-24T07:41:21;4.57;;;3.20;;
3991;SDS011;2010;48.194;16.394;2023-04-24T07:43:57;7.70;;;4.17;;
3991;SDS011;2010;48.194;16.394;2023-04-24T07:46:29;3.27;;;2.43;;
3991;SDS011;2010;48.194;16.394;2023-04-24T07:48:58;8.10;;;3.40;;
3991;SDS011;2010;48.194;16.394;2023-04-24T07:51:45;7.50;;;3.17;;
3991;SDS011;2010;48.194;16.394;2023-04-24T07:54:14;3.67;;;2.60;;
3991;SDS011;2010;48.194;16.394;2023-04-24T07:56:43;7.37;;;3.63;;
3991;SDS011;2010;48.194;16.394;2023-04-24T07:59:17;3.90;;;2.77;;
3991;SDS011;2010;48.194;16.394;2023-04-24T08:01:51;4.30;;;2.97;;
3991;SDS011;2010;48.194;16.394;2023-04-24T08:04:19;3.40;;;2.43;;
3991;SDS011;2010;48.194;16.394;2023-04-24T08:06:55;1.80;;;1.70;;
3991;SDS011;2010;48.194;16.394;2023-04-24T08:09:24;4.70;;;2.70;;
3991;SDS011;2010;48.194;16.394;2023-04-24T08:12:01;4.60;;;3.40;;
3991;SDS011;2010;48.194;16.394;2023-04-24T08:14:34;2.70;;;2.50;;
3991;SDS011;2010;48.194;16.394;2023-04-24T08:17:10;2.87;;;2.67;;
3991;SDS011;2010;48.194;16.394;2023-04-24T08:19:43;7.10;;;3.30;;
3991;SDS011;2010;48.194;16.394;2023-04-24T08:22:32;6.53;;;3.47;;
3991;SDS011;2010;48.194;16.394;2023-04-24T08:25:07;10.40;;;2.57;;
3991;SDS011;2010;48.194;16.394;2023-04-24T08:27:46;9.00;;;3.50;;
3991;SDS011;2010;48.194;16.394;2023-04-24T08:30:23;5.73;;;3.00;;
3991;SDS011;2010;48.194;16.394;2023-04-24T08:32:56;6.30;;;3.43;;
3991;SDS011;2010;48.194;16.394;2023-04-24T08:35:27;6.57;;;3.50;;
3991;SDS011;2010;48.194;16.394;2023-04-24T08:38:02;7.73;;;3.90;;
3991;SDS011;2010;48.194;16.394;2023-04-24T08:40:33;4.40;;;2.97;;
3991;SDS011;2010;48.194;16.394;2023-04-24T08:43:04;6.00;;;3.33;;
3991;SDS011;2010;48.194;16.394;2023-04-24T08:45:34;7.47;;;4.07;;
3991;SDS011;2010;48.194;16.394;2023-04-24T08:48:05;6.73;;;3.37;;
3991;SDS011;2010;48.194;16.394;2023-04-24T08:50:54;4.20;;;3.23;;
3991;SDS011;2010;48.194;16.394;2023-04-24T08:53:40;2.47;;;2.27;;
3991;SDS011;2010;48.194;16.394;2023-04-24T08:56:10;3.37;;;1.40;;
3991;SDS011;2010;48.194;16.394;2023-04-24T08:58:45;2.10;;;1.90;;
3991;SDS011;2010;48.194;16.394;2023-04-24T09:01:15;4.17;;;2.50;;
3991;SDS011;2010;48.194;16.394;2023-04-24T09:03:45;4.90;;;1.93;;
3991;SDS011;2010;48.194;16.394;2023-04-24T09:06:23;2.47;;;1.40;;
3991;SDS011;2010;48.194;16.394;2023-04-24T09:08:57;1.63;;;1.30;;
3991;SDS011;2010;48.194;16.394;2023-04-24T09:11:30;5.07;;;2.60;;
3991;SDS011;2010;48.194;16.394;2023-04-24T09:14:03;4.50;;;2.67;;
3991;SDS011;2010;48.194;16.394;2023-04-24T09:16:40;3.70;;;2.43;;
3991;SDS011;2010;48.194;16.394;2023-04-24T09:19:12;4.77;;;2.57;;
3991;SDS011;2010;48.194;16.394;2023-04-24T09:21:41;8.60;;;2.10;;
3991;SDS011;2010;48.194;16.394;2023-04-24T09:24:19;2.63;;;2.30;;
3991;SDS011;2010;48.194;16.394;2023-04-24T09:26:55;6.60;;;2.93;;
3991;SDS011;2010;48.194;16.394;2023-04-24T09:29:26;5.77;;;3.03;;
3991;SDS011;2010;48.194;16.394;2023-04-24T09:31:57;1.87;;;1.53;;
3991;SDS011;2010;48.194;16.394;2023-04-24T09:34:27;2.70;;;2.50;;
3991;SDS011;2010;48.194;16.394;2023-04-24T09:36:59;3.40;;;1.90;;
3991;SDS011;2010;48.194;16.394;2023-04-24T09:39:36;2.73;;;2.30;;
3991;SDS011;2010;48.194;16.394;2023-04-24T09:42:05;1.87;;;1.70;;
3991;SDS011;2010;48.194;16.394;2023-04-24T09:44:35;1.77;;;1.67;;
3991;SDS011;2010;48.194;16.394;2023-04-24T09:47:04;4.70;;;1.97;;
3991;SDS011;2010;48.194;16.394;2023-04-24T09:49:47;2.73;;;1.70;;
3991;SDS011;2010;48.194;16.394;2023-04-24T09:52:24;3.23;;;1.33;;
3991;SDS011;2010;48.194;16.394;2023-04-24T09:54:56;3.80;;;1.37;;
3991;SDS011;2010;48.194;16.394;2023-04-24T09:57:33;2.00;;;1.90;;
3991;SDS011;2010;48.194;16.394;2023-04-24T10:00:04;2.40;;;2.20;;
3991;SDS011;2010;48.194;16.394;2023-04-24T10:02:38;1.73;;;1.27;;
3991;SDS011;2010;48.194;16.394;2023-04-24T10:05:07;3.23;;;1.90;;
3991;SDS011;2010;48.194;16.394;2023-04-24T10:07:43;2.30;;;2.07;;
3991;SDS011;2010;48.194;16.394;2023-04-24T10:10:20;2.20;;;2.07;;
3991;SDS011;2010;48.194;16.394;2023-04-24T10:12:50;2.03;;;1.80;;
3991;SDS011;2010;48.194;16.394;2023-04-24T10:15:22;1.37;;;1.20;;
3991;SDS011;2010;48.194;16.394;2023-04-24T10:17:51;2.77;;;1.83;;
3991;SDS011;2010;48.194;16.394;2023-04-24T10:20:20;2.80;;;2.30;;
3991;SDS011;2010;48.194;16.394;2023-04-24T10:22:59;1.87;;;1.67;;
3991;SDS011;2010;48.194;16.394;2023-04-24T10:25:31;2.20;;;1.60;;
3991;SDS011;2010;48.194;16.394;2023-04-24T10:28:04;1.93;;;1.30;;
3991;SDS011;2010;48.194;16.394;2023-04-24T10:30:37;2.20;;;1.97;;
3991;SDS011;2010;48.194;16.394;2023-04-24T10:33:07;1.50;;;1.10;;
3991;SDS011;2010;48.194;16.394;2023-04-24T10:35:39;2.00;;;1.60;;
3991;SDS011;2010;48.194;16.394;2023-04-24T10:38:11;1.30;;;1.20;;
3991;SDS011;2010;48.194;16.394;2023-04-24T10:40:54;2.77;;;1.10;;
3991;SDS011;2010;48.194;16.394;2023-04-24T10:43:28;1.67;;;1.40;;
3991;SDS011;2010;48.194;16.394;2023-04-24T10:46:04;1.13;;;1.03;;
3991;SDS011;2010;48.194;16.394;2023-04-24T10:48:34;8.53;;;3.90;;
3991;SDS011;2010;48.194;16.394;2023-04-24T10:51:04;2.40;;;1.40;;
3991;SDS011;2010;48.194;16.394;2023-04-24T10:53:34;1.83;;;1.73;;
3991;SDS011;2010;48.194;16.394;2023-04-24T10:56:06;2.80;;;1.80;;
3991;SDS011;2010;48.194;16.394;2023-04-24T10:58:38;2.10;;;1.23;;
3991;SDS011;2010;48.194;16.394;2023-04-24T11:01:25;1.60;;;1.50;;
3991;SDS011;2010;48.194;16.394;2023-04-24T11:03:55;1.63;;;1.47;;
3991;SDS011;2010;48.194;16.394;2023-04-24T11:06:31;1.50;;;1.40;;
3991;SDS011;2010;48.194;16.394;2023-04-24T11:09:10;5.10;;;1.60;;
3991;SDS011;2010;48.194;16.394;2023-04-24T11:11:45;3.27;;;1.30;;
3991;SDS011;2010;48.194;16.394;2023-04-24T11:14:15;1.70;;;1.60;;
3991;SDS011;2010;48.194;16.394;2023-04-24T11:16:51;1.20;;;1.10;;
3991;SDS011;2010;48.194;16.394;2023-04-24T11:19:23;2.30;;;1.27;;
3991;SDS011;2010;48.194;16.394;2023-04-24T11:21:56;1.27;;;1.17;;
3991;SDS011;2010;48.194;16.394;2023-04-24T11:24:28;2.50;;;1.40;;
3991;SDS011;2010;48.194;16.394;2023-04-24T11:27:11;1.37;;;1.27;;
3991;SDS011;2010;48.194;16.394;2023-04-24T11:29:46;4.07;;;1.33;;
3991;SDS011;2010;48.194;16.394;2023-04-24T11:32:27;2.10;;;1.50;;
3991;SDS011;2010;48.194;16.394;2023-04-24T11:34:58;1.70;;;1.60;;
3991;SDS011;2010;48.194;16.394;2023-04-24T11:37:33;2.20;;;1.77;;
3991;SDS011;2010;48.194;16.394;2023-04-24T11:40:03;1.23;;;1.13;;
3991;SDS011;2010;48.194;16.394;2023-04-24T11:42:39;2.60;;;1.30;;
3991;SDS011;2010;48.194;16.394;2023-04-24T11:45:08;1.53;;;1.43;;
3991;SDS011;2010;48.194;16.394;2023-04-24T11:47:44;1.30;;;1.13;;
3991;SDS011;2010;48.194;16.394;2023-04-24T11:50:13;3.37;;;1.17;;
3991;SDS011;2010;48.194;16.394;2023-04-24T11:52:53;1.63;;;1.53;;
3991;SDS011;2010;48.194;16.394;2023-04-24T11:55:26;1.50;;;1.40;;
3991;SDS011;2010;48.194;16.394;2023-04-24T11:58:05;1.40;;;1.30;;
3991;SDS011;2010;48.194;16.394;2023-04-24T12:00:35;1.33;;;1.27;;
3991;SDS011;2010;48.194;16.394;2023-04-24T12:03:06;2.50;;;1.70;;
3991;SDS011;2010;48.194;16.394;2023-04-24T12:05:36;1.73;;;1.63;;
3991;SDS011;2010;48.194;16.394;2023-04-24T12:08:06;1.57;;;1.47;;
3991;SDS011;2010;48.194;16.394;2023-04-24T12:10:39;4.80;;;1.50;;
3991;SDS011;2010;48.194;16.394;2023-04-24T12:13:10;1.60;;;1.50;;
3991;SDS011;2010;48.194;16.394;2023-04-24T12:15:39;2.20;;;2.00;;
3991;SDS011;2010;48.194;16.394;2023-04-24T12:18:12;2.03;;;1.53;;
3991;SDS011;2010;48.194;16.394;2023-04-24T12:20:43;1.50;;;1.40;;
3991;SDS011;2010;48.194;16.394;2023-04-24T12:23:12;2.30;;;1.30;;
3991;SDS011;2010;48.194;16.394;2023-04-24T12:25:41;1.90;;;1.70;;
3991;SDS011;2010;48.194;16.394;2023-04-24T12:28:12;1.50;;;1.40;;
3991;SDS011;2010;48.194;16.394;2023-04-24T12:30:42;1.70;;;1.60;;
3991;SDS011;2010;48.194;16.394;2023-04-24T12:33:17;1.87;;;1.70;;
3991;SDS011;2010;48.194;16.394;2023-04-24T12:35:54;3.33;;;1.53;;
3991;SDS011;2010;48.194;16.394;2023-04-24T12:38:26;4.10;;;1.33;;
3991;SDS011;2010;48.194;16.394;2023-04-24T12:41:11;7.07;;;1.40;;
3991;SDS011;2010;48.194;16.394;2023-04-24T12:43:55;2.67;;;1.77;;
3991;SDS011;2010;48.194;16.394;2023-04-24T12:46:25;2.00;;;1.90;;
3991;SDS011;2010;48.194;16.394;2023-04-24T12:48:55;1.60;;;1.43;;
3991;SDS011;2010;48.194;16.394;2023-04-24T12:51:26;1.80;;;1.67;;
3991;SDS011;2010;48.194;16.394;2023-04-24T12:53:56;1.70;;;1.60;;
3991;SDS011;2010;48.194;16.394;2023-04-24T12:56:27;2.13;;;2.03;;
3991;SDS011;2010;48.194;16.394;2023-04-24T12:59:00;1.43;;;1.37;;
3991;SDS011;2010;48.194;16.394;2023-04-24T13:01:30;1.33;;;1.23;;
3991;SDS011;2010;48.194;16.394;2023-04-24T13:04:00;1.77;;;1.50;;
3991;SDS011;2010;48.194;16.394;2023-04-24T13:06:33;1.43;;;1.33;;
3991;SDS011;2010;48.194;16.394;2023-04-24T13:09:02;1.73;;;1.50;;
3991;SDS011;2010;48.194;16.394;2023-04-24T13:11:32;1.70;;;1.60;;
3991;SDS011;2010;48.194;16.394;2023-04-24T13:14:15;2.10;;;1.80;;
3991;SDS011;2010;48.194;16.394;2023-04-24T13:16:46;2.03;;;1.57;;
3991;SDS011;2010;48.194;16.394;2023-04-24T13:19:16;1.80;;;1.70;;
3991;SDS011;2010;48.194;16.394;2023-04-24T13:21:45;1.83;;;1.73;;
3991;SDS011;2010;48.194;16.394;2023-04-24T13:24:17;1.50;;;1.40;;
3991;SDS011;2010;48.194;16.394;2023-04-24T13:26:54;2.93;;;1.40;;
3991;SDS011;2010;48.194;16.394;2023-04-24T13:29:26;2.33;;;1.73;;
3991;SDS011;2010;48.194;16.394;2023-04-24T13:31:54;1.60;;;1.50;;
3991;SDS011;2010;48.194;16.394;2023-04-24T13:34:24;2.77;;;1.77;;
3991;SDS011;2010;48.194;16.394;2023-04-24T13:36:56;1.83;;;1.73;;
3991;SDS011;2010;48.194;16.394;2023-04-24T13:39:35;2.00;;;1.40;;
3991;SDS011;2010;48.194;16.394;2023-04-24T13:42:04;2.00;;;1.60;;
3991;SDS011;2010;48.194;16.394;2023-04-24T13:44:44;3.77;;;2.00;;
3991;SDS011;2010;48.194;16.394;2023-04-24T13:47:14;1.50;;;1.50;;
3991;SDS011;2010;48.194;16.394;2023-04-24T13:49:48;2.60;;;1.83;;
3991;SDS011;2010;48.194;16.394;2023-04-24T13:52:17;3.57;;;1.90;;
3991;SDS011;2010;48.194;16.394;2023-04-24T13:54:53;2.70;;;2.50;;
3991;SDS011;2010;48.194;16.394;2023-04-24T13:57:22;1.80;;;1.70;;
3991;SDS011;2010;48.194;16.394;2023-04-24T13:59:53;9.73;;;2.60;;
3991;SDS011;2010;48.194;16.394;2023-04-24T14:02:25;1.60;;;1.50;;
3991;SDS011;2010;48.194;16.394;2023-04-24T14:04:56;2.70;;;2.23;;
3991;SDS011;2010;48.194;16.394;2023-04-24T14:07:28;8.30;;;2.10;;
3991;SDS011;2010;48.194;16.394;2023-04-24T14:09:58;3.90;;;2.20;;
3991;SDS011;2010;48.194;16.394;2023-04-24T14:12:29;4.20;;;1.87;;
3991;SDS011;2010;48.194;16.394;2023-04-24T14:15:07;2.63;;;1.60;;
3991;SDS011;2010;48.194;16.394;2023-04-24T14:17:40;3.00;;;1.80;;
3991;SDS011;2010;48.194;16.394;2023-04-24T14:20:10;3.97;;;2.00;;
3991;SDS011;2010;48.194;16.394;2023-04-24T14:22:40;3.53;;;2.83;;
3991;SDS011;2010;48.194;16.394;2023-04-24T14:25:10;1.87;;;1.77;;
3991;SDS011;2010;48.194;16.394;2023-04-24T14:27:38;2.23;;;1.90;;
3991;SDS011;2010;48.194;16.394;2023-04-24T14:30:10;2.40;;;1.90;;
3991;SDS011;2010;48.194;16.394;2023-04-24T14:32:40;3.43;;;1.73;;
3991;SDS011;2010;48.194;16.394;2023-04-24T14:35:12;2.30;;;2.10;;
3991;SDS011;2010;48.194;16.394;2023-04-24T14:37:46;2.20;;;1.70;;
3991;SDS011;2010;48.194;16.394;2023-04-24T14:40:16;3.13;;;2.47;;
3991;SDS011;2010;48.194;16.394;2023-04-24T14:43:06;3.40;;;2.00;;
3991;SDS011;2010;48.194;16.394;2023-04-24T14:45:38;1.80;;;1.70;;
3991;SDS011;2010;48.194;16.394;2023-04-24T14:48:09;1.33;;;1.23;;
3991;SDS011;2010;48.194;16.394;2023-04-24T14:50:41;1.10;;;1.10;;
3991;SDS011;2010;48.194;16.394;2023-04-24T14:53:17;1.20;;;1.10;;
3991;SDS011;2010;48.194;16.394;2023-04-24T14:56:02;2.20;;;1.47;;
3991;SDS011;2010;48.194;16.394;2023-04-24T14:58:31;1.27;;;1.00;;
3991;SDS011;2010;48.194;16.394;2023-04-24T15:01:08;1.20;;;1.20;;
3991;SDS011;2010;48.194;16.394;2023-04-24T15:03:49;1.40;;;1.30;;
3991;SDS011;2010;48.194;16.394;2023-04-24T15:06:22;3.93;;;1.83;;
3991;SDS011;2010;48.194;16.394;2023-04-24T15:08:59;2.10;;;1.60;;
3991;SDS011;2010;48.194;16.394;2023-04-24T15:11:31;2.00;;;1.60;;
3991;SDS011;2010;48.194;16.394;2023-04-24T15:14:03;1.67;;;1.50;;
3991;SDS011;2010;48.194;16.394;2023-04-24T15:16:44;2.30;;;1.50;;
3991;SDS011;2010;48.194;16.394;2023-04-24T15:19:18;1.97;;;1.87;;
3991;SDS011;2010;48.194;16.394;2023-04-24T15:21:50;1.70;;;1.60;;
3991;SDS011;2010;48.194;16.394;2023-04-24T15:24:19;2.80;;;2.60;;
3991;SDS011;2010;48.194;16.394;2023-04-24T15:26:51;5.43;;;3.30;;
3991;SDS011;2010;48.194;16.394;2023-04-24T15:29:20;1.53;;;1.53;;
3991;SDS011;2010;48.194;16.394;2023-04-24T15:31:58;1.77;;;1.63;;
3991;SDS011;2010;48.194;16.394;2023-04-24T15:34:27;2.73;;;1.93;;
3991;SDS011;2010;48.194;16.394;2023-04-24T15:36:59;4.53;;;2.20;;
3991;SDS011;2010;48.194;16.394;2023-04-24T15:39:30;1.90;;;1.73;;
3991;SDS011;2010;48.194;16.394;2023-04-24T15:42:09;2.37;;;1.40;;